Terminal Aerodrome Forecast
Issued by NWS Pueblo, CO

Home | Current Version | Previous Version | Text Only | Print | Product List | Glossary On
Versions: 1 2 3 4 5 6 7 8 9 10 11 12 13 14 15 16 17 18 19 20 21 22 23 24 25 26 27 28 29 30 31 32 33 34
000
FTUS45 KPUB 252325
TAFPUB
TAF
KPUB 252325Z 2600/2624 35012KT P6SM VCTS SCT080CB OVC140
      TEMPO 2600/2602 VRB15G30KT -TSRA BKN060CB
     FM260300 28008KT P6SM SCT080 BKN140
     FM260900 VRB06KT P6SM VCSH BKN015 OVC090
     FM261600 VRB05KT P6SM VCSH BKN090 OVC200
     FM261900 15007KT P6SM SCT100 BKN150=

USA.gov is the U.S. government's official web portal to all federal, state and local government web resources and services.